Time;durP1;ratioP1;P1;durP2;ratioP2;P2;SDS_P1;SDS_P2;PMS_P1;PMS_P2;Temp;Humidity;BMP_temperature;BMP_pressure;BME280_temperature;BME280_humidity;BME280_pressure;Samples;Min_cycle;Max_cycle;Signal;HPM_P1;HPM_P2
2023/05/07 00:03:45;;;;;;;4.90;4.32;;;;;;;;;;10436800;28;20214;-76
2023/05/07 00:08:45;;;;;;;5.93;5.38;;;;;;;;;;10433527;28;20214;-75
2023/05/07 00:13:48;;;;;;;5.78;4.70;;;;;;;;;;10444847;28;20225;-74
2023/05/07 00:18:49;;;;;;;7.50;4.65;;;;;;;;;;10437112;28;20214;-78
2023/05/07 00:23:50;;;;;;;5.13;4.70;;;;;;;;;;10440493;28;23480;-77
2023/05/07 00:28:51;;;;;;;4.63;4.22;;;;;;;;;;10436985;28;20307;-77
2023/05/07 00:33:52;;;;;;;4.05;3.80;;;;;;;;;;10429499;28;20218;-76
2023/05/07 00:38:55;;;;;;;4.10;3.75;;;;;;;;;;10432248;28;20718;-74
2023/05/07 00:43:56;;;;;;;4.30;4.07;;;;;;;;;;10418301;28;20237;-75
2023/05/07 00:48:58;;;;;;;4.22;3.70;;;;;;;;;;10435032;28;20289;-75
2023/05/07 00:54:00;;;;;;;4.38;3.97;;;;;;;;;;10428235;28;20229;-76
2023/05/07 00:59:02;;;;;;;3.78;3.58;;;;;;;;;;10441197;28;20206;-78
2023/05/07 01:04:03;;;;;;;4.00;3.72;;;;;;;;;;10432382;28;20218;-77
2023/05/07 01:09:04;;;;;;;3.90;3.70;;;;;;;;;;10428928;28;20218;-75
2023/05/07 01:14:06;;;;;;;4.10;3.75;;;;;;;;;;10419294;28;21455;-76
2023/05/07 01:19:08;;;;;;;4.28;4.05;;;;;;;;;;10437100;28;20220;-78
2023/05/07 01:24:10;;;;;;;4.03;3.72;;;;;;;;;;10417260;28;20210;-76
2023/05/07 01:29:11;;;;;;;4.43;4.05;;;;;;;;;;10415742;28;20218;-78
2023/05/07 01:34:13;;;;;;;4.20;3.90;;;;;;;;;;10426106;28;20249;-75
2023/05/07 01:39:14;;;;;;;5.60;4.40;;;;;;;;;;10426275;28;20217;-75
2023/05/07 01:44:15;;;;;;;3.92;3.72;;;;;;;;;;10436442;28;20214;-77
2023/05/07 01:49:17;;;;;;;4.95;4.60;;;;;;;;;;10416384;28;20239;-75
2023/05/07 01:54:18;;;;;;;5.32;4.82;;;;;;;;;;10434333;28;20637;-74
2023/05/07 01:59:20;;;;;;;4.63;4.22;;;;;;;;;;10419558;28;20225;-75
2023/05/07 02:04:21;;;;;;;4.35;4.03;;;;;;;;;;10419597;28;20222;-76
2023/05/07 02:09:23;;;;;;;4.50;4.20;;;;;;;;;;10440886;28;20259;-76
2023/05/07 02:14:25;;;;;;;4.68;4.38;;;;;;;;;;10438160;28;20219;-75
2023/05/07 02:19:26;;;;;;;5.60;4.35;;;;;;;;;;10436729;28;20222;-77
2023/05/07 02:24:27;;;;;;;4.88;4.47;;;;;;;;;;10433645;28;20241;-77
2023/05/07 02:29:29;;;;;;;4.72;4.32;;;;;;;;;;10433901;28;20284;-77
2023/05/07 02:34:30;;;;;;;4.88;4.47;;;;;;;;;;10429359;28;20223;-73
2023/05/07 02:39:31;;;;;;;4.47;4.07;;;;;;;;;;10427267;28;20210;-76
2023/05/07 02:44:32;;;;;;;3.83;3.60;;;;;;;;;;10436477;28;20219;-75
2023/05/07 02:49:34;;;;;;;4.10;3.80;;;;;;;;;;10424878;28;20233;-75
2023/05/07 02:54:35;;;;;;;4.43;4.13;;;;;;;;;;10410661;28;21057;-76
2023/05/07 02:59:36;;;;;;;4.30;3.95;;;;;;;;;;10445911;28;20713;-75
2023/05/07 03:04:37;;;;;;;4.65;4.25;;;;;;;;;;10384239;28;20214;-74
2023/05/07 03:09:38;;;;;;;4.45;4.07;;;;;;;;;;10414179;28;20226;-76
2023/05/07 03:14:40;;;;;;;5.72;4.50;;;;;;;;;;10407029;28;20218;-76
2023/05/07 03:19:41;;;;;;;4.38;4.07;;;;;;;;;;10405225;28;20272;-73
2023/05/07 03:24:42;;;;;;;4.43;4.03;;;;;;;;;;10410667;28;20265;-72
2023/05/07 03:29:43;;;;;;;4.53;4.18;;;;;;;;;;10406183;28;20218;-76
2023/05/07 03:34:44;;;;;;;4.72;4.32;;;;;;;;;;10383597;28;20709;-74
2023/05/07 03:39:47;;;;;;;3.92;3.63;;;;;;;;;;10404390;28;20214;-74
2023/05/07 03:44:48;;;;;;;5.72;4.60;;;;;;;;;;10398133;28;20222;-75
2023/05/07 03:49:50;;;;;;;4.28;3.97;;;;;;;;;;10408360;28;20223;-75
2023/05/07 03:54:51;;;;;;;4.10;3.90;;;;;;;;;;10407185;28;20222;-74
2023/05/07 03:59:53;;;;;;;4.78;4.28;;;;;;;;;;10414013;28;20222;-77
2023/05/07 04:04:54;;;;;;;4.95;4.32;;;;;;;;;;10409525;28;20261;-75
2023/05/07 04:09:55;;;;;;;5.03;4.32;;;;;;;;;;10413484;28;20218;-75
2023/05/07 04:14:56;;;;;;;4.75;4.30;;;;;;;;;;10412271;28;21028;-76
2023/05/07 04:19:59;;;;;;;4.75;4.30;;;;;;;;;;10403761;28;20222;-75
2023/05/07 04:25:01;;;;;;;4.57;4.18;;;;;;;;;;10425449;28;20242;-76
2023/05/07 04:30:02;;;;;;;4.68;4.28;;;;;;;;;;10415490;28;20340;-76
2023/05/07 04:35:08;;;;;;;5.25;4.72;;;;;;;;;;10419463;28;20222;-78
2023/05/07 04:40:10;;;;;;;5.53;5.00;;;;;;;;;;10401509;28;20293;-76
2023/05/07 04:45:12;;;;;;;4.45;3.95;;;;;;;;;;10413706;28;20213;-76
2023/05/07 04:50:15;;;;;;;4.50;4.20;;;;;;;;;;10420728;28;20234;-74
2023/05/07 04:55:18;;;;;;;5.22;3.90;;;;;;;;;;10415834;28;20214;-76
2023/05/07 05:00:20;;;;;;;3.78;3.58;;;;;;;;;;10420083;28;20805;-75
2023/05/07 05:05:23;;;;;;;3.83;3.55;;;;;;;;;;10417443;28;20706;-75
2023/05/07 05:10:27;;;;;;;4.90;3.65;;;;;;;;;;10423370;28;20226;-75
2023/05/07 05:15:28;;;;;;;5.18;3.65;;;;;;;;;;10399645;28;20743;-76
2023/05/07 05:20:29;;;;;;;3.05;2.90;;;;;;;;;;10414511;28;20223;-75
2023/05/07 05:25:30;;;;;;;3.22;2.95;;;;;;;;;;10411770;28;20305;-76
2023/05/07 05:30:33;;;;;;;3.78;3.47;;;;;;;;;;10410776;28;20286;-75
2023/05/07 05:35:35;;;;;;;2.90;2.80;;;;;;;;;;10397634;28;20418;-74
2023/05/07 05:40:39;;;;;;;3.10;2.95;;;;;;;;;;10417388;28;20227;-75
2023/05/07 05:45:40;;;;;;;3.20;2.95;;;;;;;;;;10409115;28;20298;-76
2023/05/07 05:50:42;;;;;;;1.85;1.75;;;;;;;;;;10417016;28;20317;-77
2023/05/07 05:55:44;;;;;;;3.35;3.05;;;;;;;;;;10411719;28;20306;-76
2023/05/07 06:00:48;;;;;;;3.08;2.67;;;;;;;;;;10411070;28;20219;-76
2023/05/07 06:05:50;;;;;;;3.47;3.28;;;;;;;;;;10407655;28;20230;-76
2023/05/07 06:10:51;;;;;;;3.00;2.80;;;;;;;;;;10413654;28;20295;-76
2023/05/07 06:15:52;;;;;;;3.70;3.40;;;;;;;;;;10412638;28;20226;-77
2023/05/07 06:20:53;;;;;;;2.67;2.50;;;;;;;;;;10396450;28;20289;-77
2023/05/07 06:25:59;;;;;;;3.25;3.05;;;;;;;;;;10409365;28;20496;-77
2023/05/07 06:31:16;;;;;;;2.53;2.42;;;;;;;;;;10392503;28;20226;-75
2023/05/07 06:36:21;;;;;;;2.65;2.45;;;;;;;;;;10412036;28;20733;-76
2023/05/07 06:41:22;;;;;;;3.65;3.35;;;;;;;;;;10399437;28;20210;-76
2023/05/07 06:46:24;;;;;;;3.40;3.20;;;;;;;;;;10404949;28;20310;-75
2023/05/07 06:51:25;;;;;;;3.22;2.97;;;;;;;;;;10416846;28;20305;-76
2023/05/07 06:56:26;;;;;;;3.30;3.05;;;;;;;;;;10410494;28;20210;-75
2023/05/07 07:01:28;;;;;;;3.60;3.50;;;;;;;;;;10411744;28;20281;-77
2023/05/07 07:06:31;;;;;;;3.42;3.22;;;;;;;;;;10417470;28;20222;-76
2023/05/07 07:11:33;;;;;;;3.90;3.60;;;;;;;;;;10405744;28;20215;-76
2023/05/07 07:16:34;;;;;;;3.80;3.60;;;;;;;;;;10416493;28;20213;-78
2023/05/07 07:21:36;;;;;;;4.47;4.15;;;;;;;;;;10395939;28;20230;-76
2023/05/07 07:26:37;;;;;;;4.10;3.78;;;;;;;;;;10390277;28;20223;-77
2023/05/07 07:31:39;;;;;;;3.53;3.33;;;;;;;;;;10383121;28;20253;-76
2023/05/07 07:36:40;;;;;;;2.00;2.00;;;;;;;;;;10410819;28;20246;-76
2023/05/07 07:41:41;;;;;;;3.95;3.50;;;;;;;;;;10398831;28;20214;-76
2023/05/07 07:46:42;;;;;;;3.50;3.35;;;;;;;;;;10399346;28;20705;-74
2023/05/07 07:51:44;;;;;;;3.60;3.40;;;;;;;;;;10382751;28;20258;-76
2023/05/07 07:56:46;;;;;;;3.58;3.28;;;;;;;;;;10399613;28;20924;-76
2023/05/07 08:01:50;;;;;;;4.03;3.72;;;;;;;;;;10410653;28;20262;-77
2023/05/07 08:06:51;;;;;;;4.63;4.25;;;;;;;;;;10414868;28;20227;-76
2023/05/07 08:11:53;;;;;;;3.90;3.70;;;;;;;;;;10376449;28;20285;-75
2023/05/07 08:16:55;;;;;;;4.00;3.78;;;;;;;;;;10411994;28;20226;-74
2023/05/07 08:21:57;;;;;;;4.35;3.95;;;;;;;;;;10406541;28;20276;-76
2023/05/07 08:26:59;;;;;;;4.57;4.18;;;;;;;;;;10415104;28;20603;-74
2023/05/07 08:32:01;;;;;;;3.30;3.08;;;;;;;;;;10405837;28;20222;-76
2023/05/07 08:37:02;;;;;;;4.15;3.75;;;;;;;;;;10396268;28;20616;-76
2023/05/07 08:42:04;;;;;;;5.28;4.82;;;;;;;;;;10405716;28;20223;-76
2023/05/07 08:47:08;;;;;;;4.55;4.18;;;;;;;;;;10411426;28;20225;-78
2023/05/07 08:52:10;;;;;;;4.85;4.45;;;;;;;;;;10403337;28;20313;-79
2023/05/07 08:57:11;;;;;;;4.40;4.07;;;;;;;;;;10405484;28;20233;-75
2023/05/07 09:02:13;;;;;;;4.20;3.92;;;;;;;;;;10399534;28;20276;-79
2023/05/07 09:07:15;;;;;;;4.35;4.03;;;;;;;;;;10389840;28;20227;-76
2023/05/07 09:12:18;;;;;;;3.80;3.60;;;;;;;;;;10405375;28;20217;-76
2023/05/07 09:17:19;;;;;;;4.30;4.00;;;;;;;;;;10407567;28;20334;-77
2023/05/07 09:22:21;;;;;;;4.47;3.83;;;;;;;;;;10413954;28;20226;-75
2023/05/07 09:27:31;;;;;;;4.20;3.78;;;;;;;;;;10401273;28;20249;-76
2023/05/07 09:32:37;;;;;;;4.72;4.28;;;;;;;;;;10413285;28;20700;-77
2023/05/07 09:37:41;;;;;;;3.50;3.30;;;;;;;;;;10409274;28;20215;-75
2023/05/07 09:42:42;;;;;;;4.00;3.78;;;;;;;;;;10418982;28;20226;-77
2023/05/07 09:47:47;;;;;;;4.15;3.85;;;;;;;;;;10391257;28;20211;-75
2023/05/07 09:52:49;;;;;;;10.73;8.25;;;;;;;;;;10410017;28;20225;-77
2023/05/07 09:57:51;;;;;;;5.20;4.70;;;;;;;;;;10423766;28;20215;-77
2023/05/07 10:02:53;;;;;;;4.90;4.38;;;;;;;;;;10414850;28;20905;-75
2023/05/07 10:08:00;;;;;;;6.50;5.30;;;;;;;;;;10417597;28;20226;-78
2023/05/07 10:13:05;;;;;;;4.60;4.20;;;;;;;;;;10418879;28;20306;-76
2023/05/07 10:18:09;;;;;;;4.97;4.53;;;;;;;;;;10419348;28;20307;-76
2023/05/07 10:23:13;;;;;;;4.10;3.88;;;;;;;;;;10414157;28;20615;-75
2023/05/07 10:28:18;;;;;;;3.88;3.60;;;;;;;;;;10392571;28;21275;-75
2023/05/07 10:33:24;;;;;;;4.38;4.15;;;;;;;;;;10412128;28;20219;-77
2023/05/07 10:38:26;;;;;;;4.38;4.05;;;;;;;;;;10399609;28;20302;-77
2023/05/07 10:43:39;;;;;;;3.45;3.25;;;;;;;;;;10410009;28;20230;-80
2023/05/07 10:48:59;;;;;;;3.97;3.70;;;;;;;;;;10406672;28;20310;-75
2023/05/07 10:54:10;;;;;;;3.83;3.53;;;;;;;;;;10409753;28;20740;-78
2023/05/07 10:59:27;;;;;;;3.60;3.30;;;;;;;;;;10388520;28;20210;-76
2023/05/07 11:04:34;;;;;;;4.25;3.95;;;;;;;;;;10419491;28;20325;-77
2023/05/07 11:10:03;;;;;;;4.00;3.70;;;;;;;;;;10406147;28;20635;-75
2023/05/07 11:15:36;;;;;;;4.32;4.03;;;;;;;;;;10418182;28;21439;-76
2023/05/07 11:20:47;;;;;;;4.18;3.92;;;;;;;;;;10412871;28;20757;-77
2023/05/07 11:26:05;;;;;;;4.43;4.03;;;;;;;;;;10416144;28;20271;-78
2023/05/07 11:31:06;;;;;;;3.72;3.53;;;;;;;;;;10407398;28;20218;-79
2023/05/07 11:36:08;;;;;;;3.40;3.25;;;;;;;;;;10408947;28;20218;-76
2023/05/07 11:41:15;;;;;;;3.40;3.10;;;;;;;;;;10383476;28;20218;-76
2023/05/07 11:46:17;;;;;;;3.17;2.97;;;;;;;;;;10411985;28;20309;-76
2023/05/07 11:51:22;;;;;;;3.60;3.33;;;;;;;;;;10411453;28;20221;-80
2023/05/07 11:56:23;;;;;;;2.80;2.22;;;;;;;;;;10413390;28;20218;-77
2023/05/07 12:01:24;;;;;;;4.03;3.17;;;;;;;;;;10411330;28;20219;-77
2023/05/07 12:06:25;;;;;;;2.30;2.17;;;;;;;;;;10409969;28;20314;-76
2023/05/07 12:11:26;;;;;;;3.28;3.08;;;;;;;;;;10405407;28;20278;-78
2023/05/07 12:16:28;;;;;;;3.75;3.42;;;;;;;;;;10409030;28;20576;-76
2023/05/07 12:21:29;;;;;;;2.90;2.80;;;;;;;;;;10404444;28;20639;-77
2023/05/07 12:26:30;;;;;;;2.78;2.58;;;;;;;;;;10398136;28;20250;-76
2023/05/07 12:31:31;;;;;;;2.22;2.13;;;;;;;;;;10411490;28;20265;-77
2023/05/07 12:36:39;;;;;;;2.65;2.55;;;;;;;;;;10408560;28;20685;-75
2023/05/07 12:41:53;;;;;;;2.50;2.50;;;;;;;;;;10410104;28;20253;-76
2023/05/07 12:46:54;;;;;;;2.78;2.67;;;;;;;;;;10402947;28;20284;-76
2023/05/07 12:51:56;;;;;;;3.33;3.05;;;;;;;;;;10412619;28;20218;-78
2023/05/07 12:57:05;;;;;;;2.63;2.50;;;;;;;;;;10419704;28;20207;-77
2023/05/07 13:02:06;;;;;;;3.15;3.05;;;;;;;;;;10415779;28;20653;-76
2023/05/07 13:07:07;;;;;;;2.78;2.67;;;;;;;;;;10426518;28;20227;-78
2023/05/07 13:12:08;;;;;;;2.78;2.60;;;;;;;;;;10420850;28;20227;-76
2023/05/07 13:17:09;;;;;;;3.03;2.83;;;;;;;;;;10421796;28;20219;-76
2023/05/07 13:22:10;;;;;;;2.38;2.28;;;;;;;;;;10433230;28;20238;-80
2023/05/07 13:27:11;;;;;;;3.30;3.10;;;;;;;;;;10420034;28;20263;-75
2023/05/07 13:32:12;;;;;;;2.25;2.15;;;;;;;;;;10415883;28;20219;-80
2023/05/07 13:37:14;;;;;;;3.45;3.33;;;;;;;;;;10413974;28;20213;-77
2023/05/07 13:42:15;;;;;;;3.40;3.30;;;;;;;;;;10412405;28;20221;-79
2023/05/07 13:47:16;;;;;;;3.65;3.45;;;;;;;;;;10415472;28;20219;-78
2023/05/07 13:52:17;;;;;;;3.40;3.30;;;;;;;;;;10416106;28;20227;-77
2023/05/07 13:57:18;;;;;;;2.67;2.58;;;;;;;;;;10416856;28;20603;-78
2023/05/07 14:02:19;;;;;;;3.75;2.90;;;;;;;;;;10414204;28;20730;-77
2023/05/07 14:07:20;;;;;;;2.47;2.38;;;;;;;;;;10418011;28;20218;-77
2023/05/07 14:12:21;;;;;;;2.70;2.60;;;;;;;;;;10416864;28;20268;-76
2023/05/07 14:17:25;;;;;;;2.20;2.15;;;;;;;;;;10411498;28;20808;-79
2023/05/07 14:22:26;;;;;;;1.80;1.70;;;;;;;;;;10408598;28;20219;-78
2023/05/07 14:27:27;;;;;;;2.63;1.77;;;;;;;;;;10412476;28;20853;-76
2023/05/07 14:32:28;;;;;;;1.52;1.52;;;;;;;;;;10412872;28;20588;-74
2023/05/07 14:37:29;;;;;;;2.28;1.92;;;;;;;;;;10406159;28;20218;-77
2023/05/07 14:42:30;;;;;;;2.90;2.22;;;;;;;;;;10417586;28;20796;-76
2023/05/07 14:47:31;;;;;;;2.35;2.30;;;;;;;;;;10408268;28;20299;-77
2023/05/07 14:52:33;;;;;;;2.40;2.30;;;;;;;;;;10410729;28;20577;-78
2023/05/07 14:57:34;;;;;;;2.33;2.22;;;;;;;;;;10413278;28;20367;-80
2023/05/07 15:02:36;;;;;;;1.98;1.98;;;;;;;;;;10414979;28;20215;-78
2023/05/07 15:07:37;;;;;;;1.75;1.75;;;;;;;;;;10412871;28;20696;-79
2023/05/07 15:12:38;;;;;;;1.60;1.50;;;;;;;;;;10413707;28;20223;-78
2023/05/07 15:17:39;;;;;;;1.58;1.58;;;;;;;;;;10401875;28;20646;-79
2023/05/07 15:22:41;;;;;;;1.42;1.13;;;;;;;;;;10404180;28;20310;-79
2023/05/07 15:27:42;;;;;;;1.73;1.73;;;;;;;;;;10414031;28;20261;-78
2023/05/07 15:32:43;;;;;;;1.58;1.58;;;;;;;;;;10411742;28;20558;-75
2023/05/07 15:37:44;;;;;;;1.30;1.30;;;;;;;;;;10395261;28;20607;-78
2023/05/07 15:42:46;;;;;;;1.80;1.10;;;;;;;;;;10402914;28;20226;-78
2023/05/07 15:47:47;;;;;;;1.40;1.40;;;;;;;;;;10405369;28;20898;-80
2023/05/07 15:52:48;;;;;;;1.67;1.58;;;;;;;;;;10406216;28;20477;-78
2023/05/07 15:57:49;;;;;;;1.65;1.65;;;;;;;;;;10404218;28;20219;-79
2023/05/07 16:02:51;;;;;;;1.73;1.63;;;;;;;;;;10404713;28;20263;-76
2023/05/07 16:07:52;;;;;;;1.50;1.50;;;;;;;;;;10408655;28;20264;-78
2023/05/07 16:12:53;;;;;;;1.50;1.50;;;;;;;;;;10411975;28;20211;-79
2023/05/07 16:17:56;;;;;;;2.78;1.83;;;;;;;;;;10405432;28;21039;-78
2023/05/07 16:22:58;;;;;;;1.88;1.88;;;;;;;;;;10407945;28;20214;-79
2023/05/07 16:27:59;;;;;;;1.83;1.73;;;;;;;;;;10407324;28;20215;-79
2023/05/07 16:33:00;;;;;;;2.95;1.50;;;;;;;;;;10403250;28;20229;-78
2023/05/07 16:38:08;;;;;;;1.50;1.40;;;;;;;;;;10413416;28;20230;-77
2023/05/07 16:43:09;;;;;;;1.10;1.10;;;;;;;;;;10405803;28;20225;-75
2023/05/07 16:48:10;;;;;;;1.85;1.33;;;;;;;;;;10405638;28;20448;-79
2023/05/07 16:53:11;;;;;;;0.80;0.80;;;;;;;;;;10401190;28;21990;-77
2023/05/07 16:58:14;;;;;;;1.70;1.60;;;;;;;;;;10408389;28;20207;-80
2023/05/07 17:03:15;;;;;;;1.10;1.10;;;;;;;;;;10404973;28;20250;-77
2023/05/07 17:08:16;;;;;;;1.58;1.58;;;;;;;;;;10404394;28;20229;-79
2023/05/07 17:13:17;;;;;;;1.13;1.13;;;;;;;;;;10404938;28;20242;-76
2023/05/07 17:18:18;;;;;;;1.30;1.30;;;;;;;;;;10399655;28;20214;-78
2023/05/07 17:23:19;;;;;;;1.48;1.48;;;;;;;;;;10399890;28;20210;-79
2023/05/07 17:28:20;;;;;;;1.77;1.40;;;;;;;;;;10395962;28;20218;-76
2023/05/07 17:33:21;;;;;;;1.75;1.52;;;;;;;;;;10399982;28;20330;-77
2023/05/07 17:38:22;;;;;;;1.33;1.33;;;;;;;;;;10383510;28;20325;-78
2023/05/07 17:43:23;;;;;;;1.30;1.30;;;;;;;;;;10410292;28;21074;-79
2023/05/07 17:48:24;;;;;;;2.13;2.13;;;;;;;;;;10389516;28;20226;-79
2023/05/07 17:53:26;;;;;;;2.08;1.95;;;;;;;;;;10409718;28;20222;-79
2023/05/07 17:58:27;;;;;;;2.17;2.17;;;;;;;;;;10403108;28;20345;-76
2023/05/07 18:03:29;;;;;;;2.22;2.22;;;;;;;;;;10412695;28;20716;-76
2023/05/07 18:08:30;;;;;;;2.60;2.40;;;;;;;;;;10405517;28;20210;-80
2023/05/07 18:13:31;;;;;;;2.80;2.60;;;;;;;;;;10406516;28;21189;-77
2023/05/07 18:18:34;;;;;;;1.58;1.50;;;;;;;;;;10410466;28;20284;-79
2023/05/07 18:23:35;;;;;;;3.20;2.97;;;;;;;;;;10390317;28;20280;-78
2023/05/07 18:28:36;;;;;;;2.58;2.42;;;;;;;;;;10409906;28;20218;-80
2023/05/07 18:33:37;;;;;;;1.75;1.65;;;;;;;;;;10410215;28;20219;-78
2023/05/07 18:38:38;;;;;;;2.30;2.20;;;;;;;;;;10408013;28;20236;-78
2023/05/07 18:43:39;;;;;;;2.30;2.25;;;;;;;;;;10398175;28;20779;-80
2023/05/07 18:48:40;;;;;;;2.42;2.22;;;;;;;;;;10402049;28;20225;-80
2023/05/07 18:53:41;;;;;;;2.47;2.40;;;;;;;;;;10410221;28;20277;-78
2023/05/07 18:58:42;;;;;;;2.45;2.25;;;;;;;;;;10412450;28;20219;-77
2023/05/07 19:03:43;;;;;;;2.00;2.00;;;;;;;;;;10414949;28;20249;-78
2023/05/07 19:08:44;;;;;;;2.38;2.28;;;;;;;;;;10414468;28;20241;-78
2023/05/07 19:13:45;;;;;;;1.85;1.77;;;;;;;;;;10407554;28;20233;-76
2023/05/07 19:18:47;;;;;;;1.52;1.52;;;;;;;;;;10406605;28;20250;-78
2023/05/07 19:23:50;;;;;;;1.95;1.95;;;;;;;;;;10399334;28;20223;-78
2023/05/07 19:28:50;;;;;;;3.03;1.67;;;;;;;;;;10408767;28;20655;-77
2023/05/07 19:33:53;;;;;;;2.13;2.13;;;;;;;;;;10401858;28;20233;-78
2023/05/07 19:38:54;;;;;;;2.25;2.08;;;;;;;;;;10400892;28;20219;-75
2023/05/07 19:43:55;;;;;;;1.70;1.60;;;;;;;;;;10404807;28;20751;-75
2023/05/07 19:48:56;;;;;;;1.67;1.67;;;;;;;;;;10400726;28;20231;-76
2023/05/07 19:53:58;;;;;;;1.73;1.63;;;;;;;;;;10398801;28;20222;-75
2023/05/07 19:58:59;;;;;;;1.95;1.95;;;;;;;;;;10402706;28;20346;-74
2023/05/07 20:04:00;;;;;;;1.92;1.85;;;;;;;;;;10385095;28;20226;-74
2023/05/07 20:09:01;;;;;;;1.90;1.80;;;;;;;;;;10412540;28;20808;-74
2023/05/07 20:14:04;;;;;;;2.20;2.10;;;;;;;;;;10407813;28;20215;-76
2023/05/07 20:19:05;;;;;;;2.03;1.90;;;;;;;;;;10405210;28;20223;-73
2023/05/07 20:24:07;;;;;;;2.20;2.20;;;;;;;;;;10409427;28;20315;-75
2023/05/07 20:29:08;;;;;;;2.40;2.30;;;;;;;;;;10410243;28;20275;-74
2023/05/07 20:34:09;;;;;;;2.03;1.92;;;;;;;;;;10405139;28;20218;-74
2023/05/07 20:39:13;;;;;;;2.38;2.28;;;;;;;;;;10404652;28;20219;-74
2023/05/07 20:44:15;;;;;;;1.50;1.50;;;;;;;;;;10394795;28;20218;-73
2023/05/07 20:49:16;;;;;;;5.45;2.30;;;;;;;;;;10403465;28;20218;-74
2023/05/07 20:54:17;;;;;;;2.13;2.13;;;;;;;;;;10410531;28;20219;-72
2023/05/07 20:59:18;;;;;;;1.95;1.95;;;;;;;;;;10414640;28;20230;-75
2023/05/07 21:04:20;;;;;;;2.20;2.10;;;;;;;;;;10387599;28;20234;-75
2023/05/07 21:09:21;;;;;;;1.92;1.92;;;;;;;;;;10408389;28;20273;-77
2023/05/07 21:14:22;;;;;;;2.40;2.30;;;;;;;;;;10416507;28;20218;-75
2023/05/07 21:19:23;;;;;;;2.53;2.42;;;;;;;;;;10418732;28;20211;-75
2023/05/07 21:24:24;;;;;;;2.10;2.03;;;;;;;;;;10420169;28;20296;-73
2023/05/07 21:29:25;;;;;;;2.60;2.38;;;;;;;;;;10407264;28;20246;-74
2023/05/07 21:34:27;;;;;;;1.92;1.80;;;;;;;;;;10414720;28;20775;-74
2023/05/07 21:39:28;;;;;;;2.50;2.40;;;;;;;;;;10421275;28;20215;-74
2023/05/07 21:44:29;;;;;;;2.45;2.35;;;;;;;;;;10413455;28;20218;-74
2023/05/07 21:49:30;;;;;;;2.40;2.30;;;;;;;;;;10414779;28;20231;-75
2023/05/07 21:54:31;;;;;;;2.53;2.33;;;;;;;;;;10413074;28;20222;-73
2023/05/07 21:59:36;;;;;;;2.33;2.33;;;;;;;;;;10411432;28;20219;-72
2023/05/07 22:04:37;;;;;;;2.22;2.20;;;;;;;;;;10410964;28;20218;-74
2023/05/07 22:09:38;;;;;;;3.72;2.13;;;;;;;;;;10413034;28;20222;-75
2023/05/07 22:14:39;;;;;;;2.72;2.63;;;;;;;;;;10415512;28;20700;-73
2023/05/07 22:19:40;;;;;;;2.28;2.15;;;;;;;;;;10414668;28;20217;-74
2023/05/07 22:24:41;;;;;;;2.42;2.33;;;;;;;;;;10422588;28;20801;-75
2023/05/07 22:29:42;;;;;;;2.60;2.50;;;;;;;;;;10416897;28;20303;-73
2023/05/07 22:34:43;;;;;;;2.10;2.00;;;;;;;;;;10413031;28;20219;-75
2023/05/07 22:39:44;;;;;;;2.50;2.40;;;;;;;;;;10407118;28;20571;-73
2023/05/07 22:44:45;;;;;;;2.92;2.83;;;;;;;;;;10409677;28;20218;-75
2023/05/07 22:49:46;;;;;;;3.17;2.97;;;;;;;;;;10412243;28;20257;-75
2023/05/07 22:54:47;;;;;;;2.90;2.80;;;;;;;;;;10411147;28;20218;-74
2023/05/07 22:59:52;;;;;;;3.22;3.03;;;;;;;;;;10411770;28;20778;-74
2023/05/07 23:04:53;;;;;;;2.88;2.78;;;;;;;;;;10402270;28;21035;-73
2023/05/07 23:09:54;;;;;;;2.40;2.33;;;;;;;;;;10404946;28;20257;-75
2023/05/07 23:14:55;;;;;;;2.20;2.20;;;;;;;;;;10410193;28;20302;-74
2023/05/07 23:19:56;;;;;;;2.42;2.33;;;;;;;;;;10412510;28;20219;-74
2023/05/07 23:24:57;;;;;;;2.88;2.60;;;;;;;;;;10419655;28;20219;-75
2023/05/07 23:29:58;;;;;;;2.55;2.45;;;;;;;;;;10414734;28;20223;-72
2023/05/07 23:35:00;;;;;;;5.97;2.22;;;;;;;;;;10408497;28;20218;-74
2023/05/07 23:40:01;;;;;;;2.30;2.30;;;;;;;;;;10408949;28;20700;-73
2023/05/07 23:45:02;;;;;;;2.55;2.47;;;;;;;;;;10411934;28;20222;-74
2023/05/07 23:50:03;;;;;;;3.05;2.95;;;;;;;;;;10405004;28;20227;-75
2023/05/07 23:55:05;;;;;;;2.33;2.33;;;;;;;;;;10406359;28;20272;-73
